sensor_id;sensor_type;location;lat;lon;timestamp;temperature;humidity
1301;DHT22;59099;48.806;9.160;2022-08-19T00:00:27;21.90;99.90
1301;DHT22;59099;48.806;9.160;2022-08-19T00:02:53;22.00;99.90
1301;DHT22;59099;48.806;9.160;2022-08-19T00:05:20;21.90;99.90
1301;DHT22;59099;48.806;9.160;2022-08-19T00:07:49;21.80;99.90
1301;DHT22;59099;48.806;9.160;2022-08-19T00:10:16;21.80;99.90
1301;DHT22;59099;48.806;9.160;2022-08-19T00:12:42;21.90;99.90
1301;DHT22;59099;48.806;9.160;2022-08-19T00:15:10;21.80;99.90
1301;DHT22;59099;48.806;9.160;2022-08-19T00:17:43;21.80;99.90
1301;DHT22;59099;48.806;9.160;2022-08-19T00:20:12;21.80;99.90
1301;DHT22;59099;48.806;9.160;2022-08-19T00:22:38;21.90;99.90
1301;DHT22;59099;48.806;9.160;2022-08-19T00:25:05;21.90;99.90
1301;DHT22;59099;48.806;9.160;2022-08-19T00:27:32;21.80;99.90
1301;DHT22;59099;48.806;9.160;2022-08-19T00:29:57;21.80;99.90
1301;DHT22;59099;48.806;9.160;2022-08-19T00:32:24;21.70;99.90
1301;DHT22;59099;48.806;9.160;2022-08-19T00:34:51;21.60;99.90
1301;DHT22;59099;48.806;9.160;2022-08-19T00:37:22;21.70;99.90
1301;DHT22;59099;48.806;9.160;2022-08-19T00:39:49;21.70;99.90
1301;DHT22;59099;48.806;9.160;2022-08-19T00:42:18;21.70;99.90
1301;DHT22;59099;48.806;9.160;2022-08-19T00:44:44;21.70;99.90
1301;DHT22;59099;48.806;9.160;2022-08-19T00:47:10;21.60;99.90
1301;DHT22;59099;48.806;9.160;2022-08-19T00:49:50;21.50;99.90
1301;DHT22;59099;48.806;9.160;2022-08-19T00:52:22;21.40;99.90
1301;DHT22;59099;48.806;9.160;2022-08-19T00:54:50;21.50;99.90
1301;DHT22;59099;48.806;9.160;2022-08-19T00:57:20;21.50;99.90
1301;DHT22;59099;48.806;9.160;2022-08-19T00:59:52;21.50;99.90
1301;DHT22;59099;48.806;9.160;2022-08-19T01:02:20;21.50;99.90
1301;DHT22;59099;48.806;9.160;2022-08-19T01:04:46;21.50;99.90
1301;DHT22;59099;48.806;9.160;2022-08-19T01:07:12;21.70;99.90
1301;DHT22;59099;48.806;9.160;2022-08-19T01:09:39;21.60;99.90
1301;DHT22;59099;48.806;9.160;2022-08-19T01:12:05;21.70;99.90
1301;DHT22;59099;48.806;9.160;2022-08-19T01:14:31;21.70;99.90
1301;DHT22;59099;48.806;9.160;2022-08-19T01:16:58;21.60;99.90
1301;DHT22;59099;48.806;9.160;2022-08-19T01:19:36;21.60;99.90
1301;DHT22;59099;48.806;9.160;2022-08-19T01:22:18;21.70;99.90
1301;DHT22;59099;48.806;9.160;2022-08-19T01:24:45;21.70;99.90
1301;DHT22;59099;48.806;9.160;2022-08-19T01:27:11;21.60;99.90
1301;DHT22;59099;48.806;9.160;2022-08-19T01:29:41;21.60;99.90
1301;DHT22;59099;48.806;9.160;2022-08-19T01:32:10;21.60;99.90
1301;DHT22;59099;48.806;9.160;2022-08-19T01:34:38;21.50;99.90
1301;DHT22;59099;48.806;9.160;2022-08-19T01:37:09;21.60;99.90
1301;DHT22;59099;48.806;9.160;2022-08-19T01:39:38;21.60;99.90
1301;DHT22;59099;48.806;9.160;2022-08-19T01:42:05;21.60;99.90
1301;DHT22;59099;48.806;9.160;2022-08-19T01:44:33;21.50;99.90
1301;DHT22;59099;48.806;9.160;2022-08-19T01:46:59;21.50;99.90
1301;DHT22;59099;48.806;9.160;2022-08-19T01:49:25;21.50;99.90
1301;DHT22;59099;48.806;9.160;2022-08-19T01:51:54;21.40;99.90
1301;DHT22;59099;48.806;9.160;2022-08-19T01:54:23;21.40;99.90
1301;DHT22;59099;48.806;9.160;2022-08-19T01:56:51;21.50;99.90
1301;DHT22;59099;48.806;9.160;2022-08-19T01:59:21;21.50;99.90
1301;DHT22;59099;48.806;9.160;2022-08-19T02:01:47;21.50;99.90
1301;DHT22;59099;48.806;9.160;2022-08-19T02:04:13;21.50;99.90
1301;DHT22;59099;48.806;9.160;2022-08-19T02:06:40;21.50;99.90
1301;DHT22;59099;48.806;9.160;2022-08-19T02:09:06;21.50;99.90
1301;DHT22;59099;48.806;9.160;2022-08-19T02:11:35;21.50;99.90
1301;DHT22;59099;48.806;9.160;2022-08-19T02:14:04;21.40;99.90
1301;DHT22;59099;48.806;9.160;2022-08-19T02:16:31;21.40;99.90
1301;DHT22;59099;48.806;9.160;2022-08-19T02:18:58;21.40;99.90
1301;DHT22;59099;48.806;9.160;2022-08-19T02:21:27;21.40;99.90
1301;DHT22;59099;48.806;9.160;2022-08-19T02:23:53;21.40;99.90
1301;DHT22;59099;48.806;9.160;2022-08-19T02:26:22;21.30;99.90
1301;DHT22;59099;48.806;9.160;2022-08-19T02:28:49;21.30;99.90
1301;DHT22;59099;48.806;9.160;2022-08-19T02:31:18;21.30;99.90
1301;DHT22;59099;48.806;9.160;2022-08-19T02:33:45;21.20;99.90
1301;DHT22;59099;48.806;9.160;2022-08-19T02:36:15;21.20;99.90
1301;DHT22;59099;48.806;9.160;2022-08-19T02:38:44;21.20;99.90
1301;DHT22;59099;48.806;9.160;2022-08-19T02:41:17;21.20;99.90
1301;DHT22;59099;48.806;9.160;2022-08-19T02:43:43;21.30;99.90
1301;DHT22;59099;48.806;9.160;2022-08-19T02:46:16;21.40;99.90
1301;DHT22;59099;48.806;9.160;2022-08-19T02:48:47;21.30;99.90
1301;DHT22;59099;48.806;9.160;2022-08-19T02:51:37;21.20;99.90
1301;DHT22;59099;48.806;9.160;2022-08-19T02:54:04;21.10;99.90
1301;DHT22;59099;48.806;9.160;2022-08-19T02:56:33;21.00;99.90
1301;DHT22;59099;48.806;9.160;2022-08-19T02:59:01;21.10;99.90
1301;DHT22;59099;48.806;9.160;2022-08-19T03:01:31;20.90;99.90
1301;DHT22;59099;48.806;9.160;2022-08-19T03:03:59;21.00;99.90
1301;DHT22;59099;48.806;9.160;2022-08-19T03:06:25;21.10;99.90
1301;DHT22;59099;48.806;9.160;2022-08-19T03:08:51;21.00;99.90
1301;DHT22;59099;48.806;9.160;2022-08-19T03:11:21;21.00;99.90
1301;DHT22;59099;48.806;9.160;2022-08-19T03:13:48;21.00;99.90
1301;DHT22;59099;48.806;9.160;2022-08-19T03:16:18;20.90;99.90
1301;DHT22;59099;48.806;9.160;2022-08-19T03:18:45;20.80;99.90
1301;DHT22;59099;48.806;9.160;2022-08-19T03:21:19;20.80;99.90
1301;DHT22;59099;48.806;9.160;2022-08-19T03:23:45;20.80;99.90
1301;DHT22;59099;48.806;9.160;2022-08-19T03:26:11;20.70;99.90
1301;DHT22;59099;48.806;9.160;2022-08-19T03:28:38;20.70;99.90
1301;DHT22;59099;48.806;9.160;2022-08-19T03:31:13;20.70;99.90
1301;DHT22;59099;48.806;9.160;2022-08-19T03:33:41;20.60;99.90
1301;DHT22;59099;48.806;9.160;2022-08-19T03:36:09;20.60;99.90
1301;DHT22;59099;48.806;9.160;2022-08-19T03:38:41;20.60;99.90
1301;DHT22;59099;48.806;9.160;2022-08-19T03:41:12;20.50;99.90
1301;DHT22;59099;48.806;9.160;2022-08-19T03:43:40;20.50;99.90
1301;DHT22;59099;48.806;9.160;2022-08-19T03:46:12;20.50;99.90
1301;DHT22;59099;48.806;9.160;2022-08-19T03:48:40;20.60;99.90
1301;DHT22;59099;48.806;9.160;2022-08-19T03:51:07;20.60;99.90
1301;DHT22;59099;48.806;9.160;2022-08-19T03:53:34;20.50;99.90
1301;DHT22;59099;48.806;9.160;2022-08-19T03:56:01;20.50;99.90
1301;DHT22;59099;48.806;9.160;2022-08-19T03:58:29;20.40;99.90
1301;DHT22;59099;48.806;9.160;2022-08-19T04:01:02;20.30;99.90
1301;DHT22;59099;48.806;9.160;2022-08-19T04:03:28;20.30;99.90
1301;DHT22;59099;48.806;9.160;2022-08-19T04:05:54;20.40;99.90
1301;DHT22;59099;48.806;9.160;2022-08-19T04:08:20;20.30;99.90
1301;DHT22;59099;48.806;9.160;2022-08-19T04:10:48;20.40;99.90
1301;DHT22;59099;48.806;9.160;2022-08-19T04:13:18;20.40;99.90
1301;DHT22;59099;48.806;9.160;2022-08-19T04:15:45;20.30;99.90
1301;DHT22;59099;48.806;9.160;2022-08-19T04:18:12;20.30;99.90
1301;DHT22;59099;48.806;9.160;2022-08-19T04:20:43;20.30;99.90
1301;DHT22;59099;48.806;9.160;2022-08-19T04:23:11;20.30;99.90
1301;DHT22;59099;48.806;9.160;2022-08-19T04:25:38;20.30;99.90
1301;DHT22;59099;48.806;9.160;2022-08-19T04:28:05;20.40;99.90
1301;DHT22;59099;48.806;9.160;2022-08-19T04:30:31;20.40;99.90
1301;DHT22;59099;48.806;9.160;2022-08-19T04:33:02;20.30;99.90
1301;DHT22;59099;48.806;9.160;2022-08-19T04:35:36;20.30;99.90
1301;DHT22;59099;48.806;9.160;2022-08-19T04:38:02;20.40;99.90
1301;DHT22;59099;48.806;9.160;2022-08-19T04:40:28;20.40;99.90
1301;DHT22;59099;48.806;9.160;2022-08-19T04:43:12;20.40;99.90
1301;DHT22;59099;48.806;9.160;2022-08-19T04:45:43;20.40;99.90
1301;DHT22;59099;48.806;9.160;2022-08-19T04:48:10;20.40;99.90
1301;DHT22;59099;48.806;9.160;2022-08-19T04:50:39;20.40;99.90
1301;DHT22;59099;48.806;9.160;2022-08-19T04:53:06;20.40;99.90
1301;DHT22;59099;48.806;9.160;2022-08-19T04:55:32;20.40;99.90
1301;DHT22;59099;48.806;9.160;2022-08-19T04:57:58;20.40;99.90
1301;DHT22;59099;48.806;9.160;2022-08-19T05:00:25;20.40;99.90
1301;DHT22;59099;48.806;9.160;2022-08-19T05:02:51;20.40;99.90
1301;DHT22;59099;48.806;9.160;2022-08-19T05:05:17;20.40;99.90
1301;DHT22;59099;48.806;9.160;2022-08-19T05:07:43;20.40;99.90
1301;DHT22;59099;48.806;9.160;2022-08-19T05:10:10;20.50;99.90
1301;DHT22;59099;48.806;9.160;2022-08-19T05:12:37;20.40;99.90
1301;DHT22;59099;48.806;9.160;2022-08-19T05:15:04;20.50;99.90
1301;DHT22;59099;48.806;9.160;2022-08-19T05:17:31;20.40;99.90
1301;DHT22;59099;48.806;9.160;2022-08-19T05:19:58;20.50;99.90
1301;DHT22;59099;48.806;9.160;2022-08-19T05:22:44;20.40;99.90
1301;DHT22;59099;48.806;9.160;2022-08-19T05:25:15;20.50;99.90
1301;DHT22;59099;48.806;9.160;2022-08-19T05:27:43;20.50;99.90
1301;DHT22;59099;48.806;9.160;2022-08-19T05:30:10;20.50;99.90
1301;DHT22;59099;48.806;9.160;2022-08-19T05:32:37;20.50;99.90
1301;DHT22;59099;48.806;9.160;2022-08-19T05:35:04;20.50;99.90
1301;DHT22;59099;48.806;9.160;2022-08-19T05:37:30;20.60;99.90
1301;DHT22;59099;48.806;9.160;2022-08-19T05:39:56;20.70;99.90
1301;DHT22;59099;48.806;9.160;2022-08-19T05:42:22;20.60;99.90
1301;DHT22;59099;48.806;9.160;2022-08-19T05:44:49;20.50;99.90
1301;DHT22;59099;48.806;9.160;2022-08-19T05:47:16;20.60;99.90
1301;DHT22;59099;48.806;9.160;2022-08-19T05:49:45;20.60;99.90
1301;DHT22;59099;48.806;9.160;2022-08-19T05:52:13;20.60;99.90
1301;DHT22;59099;48.806;9.160;2022-08-19T05:54:41;20.60;99.90
1301;DHT22;59099;48.806;9.160;2022-08-19T05:57:09;20.60;99.90
1301;DHT22;59099;48.806;9.160;2022-08-19T05:59:35;20.50;99.90
1301;DHT22;59099;48.806;9.160;2022-08-19T06:02:02;20.50;99.90
1301;DHT22;59099;48.806;9.160;2022-08-19T06:04:28;20.50;99.90
1301;DHT22;59099;48.806;9.160;2022-08-19T06:06:54;20.50;99.90
1301;DHT22;59099;48.806;9.160;2022-08-19T06:09:22;20.60;99.90
1301;DHT22;59099;48.806;9.160;2022-08-19T06:11:53;20.60;99.90
1301;DHT22;59099;48.806;9.160;2022-08-19T06:14:22;20.60;99.90
1301;DHT22;59099;48.806;9.160;2022-08-19T06:16:49;20.60;99.90
1301;DHT22;59099;48.806;9.160;2022-08-19T06:21:50;20.60;99.90
1301;DHT22;59099;48.806;9.160;2022-08-19T06:24:19;20.60;99.90
1301;DHT22;59099;48.806;9.160;2022-08-19T06:26:47;20.60;99.90
1301;DHT22;59099;48.806;9.160;2022-08-19T06:29:16;20.60;99.90
1301;DHT22;59099;48.806;9.160;2022-08-19T06:31:46;20.60;99.90
1301;DHT22;59099;48.806;9.160;2022-08-19T06:34:13;20.60;99.90
1301;DHT22;59099;48.806;9.160;2022-08-19T06:36:43;20.60;99.90
1301;DHT22;59099;48.806;9.160;2022-08-19T06:39:15;20.60;99.90
1301;DHT22;59099;48.806;9.160;2022-08-19T06:41:44;20.70;99.90
1301;DHT22;59099;48.806;9.160;2022-08-19T06:44:17;20.70;99.90
1301;DHT22;59099;48.806;9.160;2022-08-19T06:46:43;20.60;99.90
1301;DHT22;59099;48.806;9.160;2022-08-19T06:49:09;20.60;99.90
1301;DHT22;59099;48.806;9.160;2022-08-19T06:51:43;20.60;99.90
1301;DHT22;59099;48.806;9.160;2022-08-19T06:54:10;20.60;99.90
1301;DHT22;59099;48.806;9.160;2022-08-19T06:56:36;20.60;99.90
1301;DHT22;59099;48.806;9.160;2022-08-19T06:59:11;20.50;99.90
1301;DHT22;59099;48.806;9.160;2022-08-19T07:01:44;20.60;99.90
1301;DHT22;59099;48.806;9.160;2022-08-19T07:04:13;20.40;99.90
1301;DHT22;59099;48.806;9.160;2022-08-19T07:06:39;20.40;99.90
1301;DHT22;59099;48.806;9.160;2022-08-19T07:09:07;20.40;99.90
1301;DHT22;59099;48.806;9.160;2022-08-19T07:11:33;20.40;99.90
1301;DHT22;59099;48.806;9.160;2022-08-19T07:14:00;20.40;99.90
1301;DHT22;59099;48.806;9.160;2022-08-19T07:16:27;20.50;99.90
1301;DHT22;59099;48.806;9.160;2022-08-19T07:18:54;20.60;99.90
1301;DHT22;59099;48.806;9.160;2022-08-19T07:21:27;20.50;99.90
1301;DHT22;59099;48.806;9.160;2022-08-19T07:23:56;20.50;99.90
1301;DHT22;59099;48.806;9.160;2022-08-19T07:26:33;20.60;99.90
1301;DHT22;59099;48.806;9.160;2022-08-19T07:29:05;20.70;99.90
1301;DHT22;59099;48.806;9.160;2022-08-19T07:31:38;20.70;99.90
1301;DHT22;59099;48.806;9.160;2022-08-19T07:34:07;20.70;99.90
1301;DHT22;59099;48.806;9.160;2022-08-19T07:36:41;20.70;99.90
1301;DHT22;59099;48.806;9.160;2022-08-19T07:41:47;20.50;99.90
1301;DHT22;59099;48.806;9.160;2022-08-19T07:44:17;20.50;99.90
1301;DHT22;59099;48.806;9.160;2022-08-19T07:46:54;20.60;99.90
1301;DHT22;59099;48.806;9.160;2022-08-19T07:49:37;20.60;99.90
1301;DHT22;59099;48.806;9.160;2022-08-19T07:52:08;20.60;99.90
1301;DHT22;59099;48.806;9.160;2022-08-19T07:54:38;20.70;99.90
1301;DHT22;59099;48.806;9.160;2022-08-19T07:57:05;20.70;99.90
1301;DHT22;59099;48.806;9.160;2022-08-19T07:59:31;20.80;99.90
1301;DHT22;59099;48.806;9.160;2022-08-19T08:02:15;20.90;99.90
1301;DHT22;59099;48.806;9.160;2022-08-19T08:04:41;20.80;99.90
1301;DHT22;59099;48.806;9.160;2022-08-19T08:07:25;20.80;99.90
1301;DHT22;59099;48.806;9.160;2022-08-19T08:10:10;20.70;99.90
1301;DHT22;59099;48.806;9.160;2022-08-19T08:12:40;20.70;99.90
1301;DHT22;59099;48.806;9.160;2022-08-19T08:15:11;20.70;99.90
1301;DHT22;59099;48.806;9.160;2022-08-19T08:17:40;20.60;99.90
1301;DHT22;59099;48.806;9.160;2022-08-19T08:20:06;20.70;99.90
1301;DHT22;59099;48.806;9.160;2022-08-19T08:22:32;20.70;99.90
1301;DHT22;59099;48.806;9.160;2022-08-19T08:25:22;20.80;99.90
1301;DHT22;59099;48.806;9.160;2022-08-19T08:27:48;20.80;99.90
1301;DHT22;59099;48.806;9.160;2022-08-19T08:30:23;20.90;99.90
1301;DHT22;59099;48.806;9.160;2022-08-19T08:32:50;20.90;99.90
1301;DHT22;59099;48.806;9.160;2022-08-19T08:35:23;21.00;99.90
1301;DHT22;59099;48.806;9.160;2022-08-19T08:37:51;21.10;99.90
1301;DHT22;59099;48.806;9.160;2022-08-19T08:40:37;21.10;99.90
1301;DHT22;59099;48.806;9.160;2022-08-19T08:43:20;21.10;99.90
1301;DHT22;59099;48.806;9.160;2022-08-19T08:46:01;21.00;99.90
1301;DHT22;59099;48.806;9.160;2022-08-19T08:51:16;21.10;99.90
1301;DHT22;59099;48.806;9.160;2022-08-19T08:53:45;21.00;99.90
1301;DHT22;59099;48.806;9.160;2022-08-19T08:56:12;21.00;99.90
1301;DHT22;59099;48.806;9.160;2022-08-19T09:01:15;21.00;99.90
1301;DHT22;59099;48.806;9.160;2022-08-19T09:03:42;21.00;99.90
1301;DHT22;59099;48.806;9.160;2022-08-19T09:09:04;21.10;99.90
1301;DHT22;59099;48.806;9.160;2022-08-19T09:14:36;21.00;99.90
1301;DHT22;59099;48.806;9.160;2022-08-19T09:17:01;21.10;99.90
1301;DHT22;59099;48.806;9.160;2022-08-19T09:19:36;21.20;99.90
1301;DHT22;59099;48.806;9.160;2022-08-19T09:22:12;21.20;99.90
1301;DHT22;59099;48.806;9.160;2022-08-19T09:24:37;21.40;99.90
1301;DHT22;59099;48.806;9.160;2022-08-19T09:27:03;21.40;99.90
1301;DHT22;59099;48.806;9.160;2022-08-19T09:29:29;21.50;99.90
1301;DHT22;59099;48.806;9.160;2022-08-19T09:31:56;21.70;99.90
1301;DHT22;59099;48.806;9.160;2022-08-19T09:34:21;21.70;99.90
1301;DHT22;59099;48.806;9.160;2022-08-19T09:36:48;21.80;99.90
1301;DHT22;59099;48.806;9.160;2022-08-19T09:39:18;21.90;99.90
1301;DHT22;59099;48.806;9.160;2022-08-19T09:41:47;22.00;99.90
1301;DHT22;59099;48.806;9.160;2022-08-19T09:44:15;22.10;99.90
1301;DHT22;59099;48.806;9.160;2022-08-19T09:46:41;22.10;99.90
1301;DHT22;59099;48.806;9.160;2022-08-19T09:49:07;22.20;99.90
1301;DHT22;59099;48.806;9.160;2022-08-19T09:51:36;22.20;99.90
1301;DHT22;59099;48.806;9.160;2022-08-19T09:54:02;22.20;99.90
1301;DHT22;59099;48.806;9.160;2022-08-19T09:56:29;22.20;99.90
1301;DHT22;59099;48.806;9.160;2022-08-19T09:58:58;22.10;99.90
1301;DHT22;59099;48.806;9.160;2022-08-19T10:01:27;22.20;99.90
1301;DHT22;59099;48.806;9.160;2022-08-19T10:03:54;22.20;99.90
1301;DHT22;59099;48.806;9.160;2022-08-19T10:06:23;22.30;99.90
1301;DHT22;59099;48.806;9.160;2022-08-19T10:08:55;22.30;99.90
1301;DHT22;59099;48.806;9.160;2022-08-19T10:11:20;22.20;99.90
1301;DHT22;59099;48.806;9.160;2022-08-19T10:13:49;22.00;99.90
1301;DHT22;59099;48.806;9.160;2022-08-19T10:16:18;22.10;99.90
1301;DHT22;59099;48.806;9.160;2022-08-19T10:18:44;22.20;99.90
1301;DHT22;59099;48.806;9.160;2022-08-19T10:21:16;22.40;99.90
1301;DHT22;59099;48.806;9.160;2022-08-19T10:23:53;22.40;99.90
1301;DHT22;59099;48.806;9.160;2022-08-19T10:26:23;22.50;99.90
1301;DHT22;59099;48.806;9.160;2022-08-19T10:28:50;22.50;99.90
1301;DHT22;59099;48.806;9.160;2022-08-19T10:31:20;22.50;99.90
1301;DHT22;59099;48.806;9.160;2022-08-19T10:33:47;22.50;99.90
1301;DHT22;59099;48.806;9.160;2022-08-19T10:36:19;22.50;99.90
1301;DHT22;59099;48.806;9.160;2022-08-19T10:38:47;22.50;99.90
1301;DHT22;59099;48.806;9.160;2022-08-19T10:41:20;22.50;99.90
1301;DHT22;59099;48.806;9.160;2022-08-19T10:43:50;22.70;99.90
1301;DHT22;59099;48.806;9.160;2022-08-19T10:46:18;22.90;99.90
1301;DHT22;59099;48.806;9.160;2022-08-19T10:48:44;22.80;99.90
1301;DHT22;59099;48.806;9.160;2022-08-19T10:51:11;22.90;99.90
1301;DHT22;59099;48.806;9.160;2022-08-19T10:53:56;23.00;99.90
1301;DHT22;59099;48.806;9.160;2022-08-19T10:56:22;23.10;99.90
1301;DHT22;59099;48.806;9.160;2022-08-19T10:59:07;23.20;99.90
1301;DHT22;59099;48.806;9.160;2022-08-19T11:01:34;23.20;99.90
1301;DHT22;59099;48.806;9.160;2022-08-19T11:04:04;23.20;99.90
1301;DHT22;59099;48.806;9.160;2022-08-19T11:06:33;23.20;99.90
1301;DHT22;59099;48.806;9.160;2022-08-19T11:08:59;23.10;99.90
1301;DHT22;59099;48.806;9.160;2022-08-19T11:11:26;23.20;99.90
1301;DHT22;59099;48.806;9.160;2022-08-19T11:13:52;23.20;99.90
1301;DHT22;59099;48.806;9.160;2022-08-19T11:16:25;23.30;99.90
1301;DHT22;59099;48.806;9.160;2022-08-19T11:18:57;23.60;99.90
1301;DHT22;59099;48.806;9.160;2022-08-19T11:21:27;23.70;99.90
1301;DHT22;59099;48.806;9.160;2022-08-19T11:23:56;23.80;99.90
1301;DHT22;59099;48.806;9.160;2022-08-19T11:26:23;24.00;99.90
1301;DHT22;59099;48.806;9.160;2022-08-19T11:28:50;24.00;99.90
1301;DHT22;59099;48.806;9.160;2022-08-19T11:31:20;24.00;99.90
1301;DHT22;59099;48.806;9.160;2022-08-19T11:33:46;24.10;99.90
1301;DHT22;59099;48.806;9.160;2022-08-19T11:36:16;24.10;99.90
1301;DHT22;59099;48.806;9.160;2022-08-19T11:38:44;24.10;99.90
1301;DHT22;59099;48.806;9.160;2022-08-19T11:41:10;24.20;99.90
1301;DHT22;59099;48.806;9.160;2022-08-19T11:43:36;24.30;99.90
1301;DHT22;59099;48.806;9.160;2022-08-19T11:46:07;24.40;99.90
1301;DHT22;59099;48.806;9.160;2022-08-19T11:48:34;24.40;99.90
1301;DHT22;59099;48.806;9.160;2022-08-19T11:51:05;24.40;99.90
1301;DHT22;59099;48.806;9.160;2022-08-19T11:53:35;24.60;99.90
1301;DHT22;59099;48.806;9.160;2022-08-19T11:56:02;24.70;99.90
1301;DHT22;59099;48.806;9.160;2022-08-19T11:58:28;24.70;99.90
1301;DHT22;59099;48.806;9.160;2022-08-19T12:00:54;24.70;99.90
1301;DHT22;59099;48.806;9.160;2022-08-19T12:03:20;24.70;99.90
1301;DHT22;59099;48.806;9.160;2022-08-19T12:05:46;24.60;99.90
1301;DHT22;59099;48.806;9.160;2022-08-19T12:08:12;24.60;99.90
1301;DHT22;59099;48.806;9.160;2022-08-19T12:10:39;24.70;99.90
1301;DHT22;59099;48.806;9.160;2022-08-19T12:13:08;24.70;99.90
1301;DHT22;59099;48.806;9.160;2022-08-19T12:15:39;24.80;99.90
1301;DHT22;59099;48.806;9.160;2022-08-19T12:18:07;24.90;99.90
1301;DHT22;59099;48.806;9.160;2022-08-19T12:20:38;24.90;99.90
1301;DHT22;59099;48.806;9.160;2022-08-19T12:23:06;24.80;99.90
1301;DHT22;59099;48.806;9.160;2022-08-19T12:25:32;24.80;99.90
1301;DHT22;59099;48.806;9.160;2022-08-19T12:27:59;24.80;99.90
1301;DHT22;59099;48.806;9.160;2022-08-19T12:30:25;24.70;99.90
1301;DHT22;59099;48.806;9.160;2022-08-19T12:32:51;24.60;99.90
1301;DHT22;59099;48.806;9.160;2022-08-19T12:35:17;24.50;99.90
1301;DHT22;59099;48.806;9.160;2022-08-19T12:37:46;24.50;99.90
1301;DHT22;59099;48.806;9.160;2022-08-19T12:40:14;24.40;99.90
1301;DHT22;59099;48.806;9.160;2022-08-19T12:42:40;24.30;99.90
1301;DHT22;59099;48.806;9.160;2022-08-19T12:45:12;24.40;99.90
1301;DHT22;59099;48.806;9.160;2022-08-19T12:47:38;24.50;99.90
1301;DHT22;59099;48.806;9.160;2022-08-19T12:50:05;24.50;99.90
1301;DHT22;59099;48.806;9.160;2022-08-19T12:52:36;24.60;99.90
1301;DHT22;59099;48.806;9.160;2022-08-19T12:55:03;24.80;99.90
1301;DHT22;59099;48.806;9.160;2022-08-19T12:57:30;25.00;99.90
1301;DHT22;59099;48.806;9.160;2022-08-19T13:00:04;25.20;99.90
1301;DHT22;59099;48.806;9.160;2022-08-19T13:02:33;25.30;99.90
1301;DHT22;59099;48.806;9.160;2022-08-19T13:05:00;25.20;99.90
1301;DHT22;59099;48.806;9.160;2022-08-19T13:07:26;24.90;99.90
1301;DHT22;59099;48.806;9.160;2022-08-19T13:09:52;24.90;99.90
1301;DHT22;59099;48.806;9.160;2022-08-19T13:12:18;24.70;99.90
1301;DHT22;59099;48.806;9.160;2022-08-19T13:14:46;24.70;99.90
1301;DHT22;59099;48.806;9.160;2022-08-19T13:17:16;24.50;99.90
1301;DHT22;59099;48.806;9.160;2022-08-19T13:19:42;24.50;99.90
1301;DHT22;59099;48.806;9.160;2022-08-19T13:22:08;24.40;99.90
1301;DHT22;59099;48.806;9.160;2022-08-19T13:24:33;24.20;99.90
1301;DHT22;59099;48.806;9.160;2022-08-19T13:27:00;24.10;99.90
1301;DHT22;59099;48.806;9.160;2022-08-19T13:29:28;24.20;99.90
1301;DHT22;59099;48.806;9.160;2022-08-19T13:32:13;24.10;99.90
1301;DHT22;59099;48.806;9.160;2022-08-19T13:34:57;24.00;99.90
1301;DHT22;59099;48.806;9.160;2022-08-19T13:37:23;23.90;99.90
1301;DHT22;59099;48.806;9.160;2022-08-19T13:40:21;23.90;99.90
1301;DHT22;59099;48.806;9.160;2022-08-19T13:42:50;23.80;99.90
1301;DHT22;59099;48.806;9.160;2022-08-19T13:45:19;23.80;99.90
1301;DHT22;59099;48.806;9.160;2022-08-19T13:47:47;23.70;99.90
1301;DHT22;59099;48.806;9.160;2022-08-19T13:50:19;23.70;99.90
1301;DHT22;59099;48.806;9.160;2022-08-19T13:52:45;23.60;99.90
1301;DHT22;59099;48.806;9.160;2022-08-19T13:55:14;23.50;99.90
1301;DHT22;59099;48.806;9.160;2022-08-19T13:57:40;23.40;99.90
1301;DHT22;59099;48.806;9.160;2022-08-19T14:00:09;23.30;99.90
1301;DHT22;59099;48.806;9.160;2022-08-19T14:02:39;23.10;99.90
1301;DHT22;59099;48.806;9.160;2022-08-19T14:05:08;23.10;99.90
1301;DHT22;59099;48.806;9.160;2022-08-19T14:07:34;23.00;99.90
1301;DHT22;59099;48.806;9.160;2022-08-19T14:10:01;22.80;99.90
1301;DHT22;59099;48.806;9.160;2022-08-19T14:12:28;22.90;99.90
1301;DHT22;59099;48.806;9.160;2022-08-19T14:14:53;22.80;99.90
1301;DHT22;59099;48.806;9.160;2022-08-19T14:17:19;22.80;99.90
1301;DHT22;59099;48.806;9.160;2022-08-19T14:19:45;22.80;99.90
1301;DHT22;59099;48.806;9.160;2022-08-19T14:22:11;22.80;99.90
1301;DHT22;59099;48.806;9.160;2022-08-19T14:24:37;22.80;99.90
1301;DHT22;59099;48.806;9.160;2022-08-19T14:27:05;22.80;99.90
1301;DHT22;59099;48.806;9.160;2022-08-19T14:29:37;22.80;99.90
1301;DHT22;59099;48.806;9.160;2022-08-19T14:32:09;22.80;99.90
1301;DHT22;59099;48.806;9.160;2022-08-19T14:34:35;22.80;99.90
1301;DHT22;59099;48.806;9.160;2022-08-19T14:37:02;22.80;99.90
1301;DHT22;59099;48.806;9.160;2022-08-19T14:39:28;22.80;99.90
1301;DHT22;59099;48.806;9.160;2022-08-19T14:41:54;22.90;99.90
1301;DHT22;59099;48.806;9.160;2022-08-19T14:44:20;23.00;99.90
1301;DHT22;59099;48.806;9.160;2022-08-19T14:46:45;22.90;99.90
1301;DHT22;59099;48.806;9.160;2022-08-19T14:49:11;22.90;99.90
1301;DHT22;59099;48.806;9.160;2022-08-19T14:51:37;22.70;99.90
1301;DHT22;59099;48.806;9.160;2022-08-19T14:54:03;22.70;99.90
1301;DHT22;59099;48.806;9.160;2022-08-19T14:56:29;22.60;99.90
1301;DHT22;59099;48.806;9.160;2022-08-19T14:58:56;22.70;99.90
1301;DHT22;59099;48.806;9.160;2022-08-19T15:01:25;22.70;99.90
1301;DHT22;59099;48.806;9.160;2022-08-19T15:03:52;22.70;99.90
1301;DHT22;59099;48.806;9.160;2022-08-19T15:06:21;22.80;99.90
1301;DHT22;59099;48.806;9.160;2022-08-19T15:08:48;22.90;99.90
1301;DHT22;59099;48.806;9.160;2022-08-19T15:11:19;23.10;99.90
1301;DHT22;59099;48.806;9.160;2022-08-19T15:13:46;23.30;99.90
1301;DHT22;59099;48.806;9.160;2022-08-19T15:16:13;23.30;99.90
1301;DHT22;59099;48.806;9.160;2022-08-19T15:18:41;23.40;99.90
1301;DHT22;59099;48.806;9.160;2022-08-19T15:21:11;23.50;99.90
1301;DHT22;59099;48.806;9.160;2022-08-19T15:23:39;23.70;99.90
1301;DHT22;59099;48.806;9.160;2022-08-19T15:26:05;24.00;99.90
1301;DHT22;59099;48.806;9.160;2022-08-19T15:28:31;24.30;99.90
1301;DHT22;59099;48.806;9.160;2022-08-19T15:30:58;24.40;99.90
1301;DHT22;59099;48.806;9.160;2022-08-19T15:33:24;24.40;99.90
1301;DHT22;59099;48.806;9.160;2022-08-19T15:35:50;24.60;99.90
1301;DHT22;59099;48.806;9.160;2022-08-19T15:38:17;24.70;99.90
1301;DHT22;59099;48.806;9.160;2022-08-19T15:40:47;24.80;99.90
1301;DHT22;59099;48.806;9.160;2022-08-19T15:43:15;24.70;99.90
1301;DHT22;59099;48.806;9.160;2022-08-19T15:45:42;24.80;99.90
1301;DHT22;59099;48.806;9.160;2022-08-19T15:48:08;24.90;99.90
1301;DHT22;59099;48.806;9.160;2022-08-19T15:50:34;25.00;99.90
1301;DHT22;59099;48.806;9.160;2022-08-19T15:53:04;25.30;99.90
1301;DHT22;59099;48.806;9.160;2022-08-19T15:55:33;25.50;99.90
1301;DHT22;59099;48.806;9.160;2022-08-19T15:58:05;25.80;99.90
1301;DHT22;59099;48.806;9.160;2022-08-19T16:00:49;25.90;99.90
1301;DHT22;59099;48.806;9.160;2022-08-19T16:03:34;25.90;99.90
1301;DHT22;59099;48.806;9.160;2022-08-19T16:06:18;25.80;99.90
1301;DHT22;59099;48.806;9.160;2022-08-19T16:08:55;25.80;99.90
1301;DHT22;59099;48.806;9.160;2022-08-19T16:11:23;26.00;99.90